• Join FlightAware (Why Join?)
  • Login
  • US Flag 
04:27PM EDT


 

Airport Tracker/Info


-or-


 

Live Flight TrackerFlight Track Log ✈ UAL4236 ✈ 10-Apr-2013 ✈ KBHM - KIAH

Flight Track Log - Related Links

Times and Time Zones

All times are in EDT time to prevent confusion due to time zone crossing. See the UAL4236 flight status page for this flight to view local times or setup timezone preferences in your user account.

Time Position Orientation Groundspeed Altitude Reporting Facility
EDT Latitude Longitude Course Direction KTS MPH feet Rate Location/Type
08:23AM 33.5531 -86.7758 239° Southwest 165 190 1,300  Level Atlanta Center
08:24AM 33.5267 -86.8347 242° Southwest 200 230 3,700 1,980 Climbing Atlanta Center
08:26AM 33.3138 -87.0974 230° Southwest  Level FlightAware Approximate
08:26AM 33.4639 -86.9272 231° Southwest 240 276 6,900  Level Atlanta Center
08:27AM 33.2548 -87.1845 231° Southwest  Level FlightAware Approximate
08:27AM 33.4167 -86.9928 229° Southwest 251 289 9,100  Level Atlanta Center
08:28AM 33.1970 -87.2726 239° Southwest  Level FlightAware Approximate
08:28AM 33.3669 -87.0633 230° Southwest 267 307 10,300  Level Atlanta Center
08:29AM 33.3083 -87.1483 230° Southwest 298 343 10,800 900 Climbing Atlanta Center
08:30AM 33.2433 -87.2428 231° Southwest 341 392 12,200 1,440 Climbing Atlanta Center
08:31AM 33.1783 -87.3322 229° Southwest 358 412 13,700 1,440 Climbing Atlanta Center
08:32AM 33.1133 -87.4242 230° Southwest 364 419 15,100 1,320 Climbing Atlanta Center
08:33AM 33.0481 -87.5158 230° Southwest 369 425 16,400 1,200 Climbing Atlanta Center
08:34AM 32.9742 -87.6217 230° Southwest 369 425 17,600 1,140 Climbing Atlanta Center
08:34AM 32.9533 -87.6464 225° Southwest 372 428 17,900 1,140 Climbing Memphis Center
08:35AM 32.8844 -87.7425 230° Southwest 367 422 19,100 1,140 Climbing Memphis Center
08:36AM 32.8156 -87.8408 230° Southwest 377 434 20,200 1,020 Climbing Memphis Center
08:37AM 32.7567 -87.9289 232° Southwest 383 441 21,200 1,140 Climbing Memphis Center
08:38AM 32.7089 -88.0414 243° Southwest 383 441 22,500 1,260 Climbing Memphis Center
08:39AM 32.6733 -88.1633 251° West 381 438 23,800 1,260 Climbing Memphis Center
08:40AM 32.6378 -88.2800 250° West 381 438 25,100 1,320 Climbing Memphis Center
08:41AM 32.6000 -88.3944 249° West 381 438 26,500 1,260 Climbing Memphis Center
08:42AM 32.5683 -88.5086 252° West 376 433 27,700 1,200 Climbing Memphis Center
08:43AM 32.5325 -88.6200 249° West 371 427 28,900 1,080 Climbing Memphis Center
08:44AM 32.4964 -88.7342 249° West 371 427 29,900 540 Climbing Memphis Center
08:45AM 32.4603 -88.8531 250° West 376 433 30,000  Climbing Memphis Center
08:46AM 32.4219 -88.9742 249° West 388 447 30,000  Level Memphis Center
08:47AM 32.3836 -89.1028 251° West 402 463 30,000 300 Level Memphis Center
08:48AM 32.3411 -89.2311 249° West 415 478 30,600 780 Climbing Memphis Center
08:49AM 32.3025 -89.3544 250° West 415 478 31,600 1,020 Climbing Memphis Center
08:50AM 32.2639 -89.4753 249° West 409 471 32,700 1,080 Climbing Memphis Center
08:51AM 32.2250 -89.5961 249° West 409 471 33,800 600 Climbing Memphis Center
08:52AM 32.1881 -89.7167 250° West 398 458 34,000 60 Climbing Memphis Center
08:53AM 32.1469 -89.8419 249° West 403 464 34,000  Level Memphis Center
08:54AM 32.1056 -89.9697 249° West 409 471 34,000  Level Memphis Center
08:55AM 32.0642 -90.0950 249° West 409 471 34,000  Level Memphis Center
08:56AM 32.0247 -90.2178 249° West 409 471 34,000  Level Memphis Center
08:57AM 31.9658 -90.4019 249° West 399 459 34,000  Level Houston Center
08:58AM 31.9258 -90.5233 249° West 399 459 34,000  Level Houston Center
08:59AM 31.8858 -90.6442 249° West 398 458 34,000  Level Houston Center
09:00AM 31.8461 -90.7647 249° West 396 456 34,000  Level Houston Center
09:01AM 31.7989 -90.9094 249° West 394 453 34,000  Level Houston Center
09:03AM 31.7594 -91.0306 249° West 396 456 34,000  Level Houston Center
09:04AM 31.7203 -91.1442 248° West 398 458 34,000  Level Houston Center
09:05AM 31.6786 -91.2644 248° West 398 458 34,000  Level Houston Center
09:06AM 31.6308 -91.4083 249° West 395 455 34,000  Level Houston Center
09:07AM 31.5911 -91.5294 249° West 396 456 34,000  Level Houston Center
09:08AM 31.5497 -91.6503 248° West 398 458 34,000  Level Houston Center
09:09AM 31.5094 -91.7700 248° West 397 457 34,000  Level Houston Center
09:10AM 31.4678 -91.8908 248° West 397 457 34,000  Level Houston Center
09:11AM 31.4267 -92.0097 248° West 394 453 34,000 -540 Level Houston Center
09:12AM 31.3828 -92.1342 248° West 399 459 32,900 -1,020 Descending Houston Center
09:13AM 31.3403 -92.2564 248° West 404 465 32,000 -480 Descending Houston Center
09:14AM 31.2894 -92.4047 248° West 410 472 32,000  Level Houston Center
09:15AM 31.2431 -92.5256 246° West 410 472 32,000  Level Houston Center
09:16AM 31.1811 -92.6364 237° Southwest 408 470 32,000  Level Houston Center
09:17AM 31.1189 -92.7464 237° Southwest 408 470 32,000  Level Houston Center
09:18AM 31.0567 -92.8567 237° Southwest 408 470 32,000  Level Houston Center
09:19AM 30.9939 -92.9683 237° Southwest 412 474 32,000  Level Houston Center
09:20AM 30.9328 -93.0797 237° Southwest 411 473 32,000  Level Houston Center
09:21AM 30.8564 -93.2133 236° Southwest 413 475 32,000  Level Houston Center
09:22AM 30.7942 -93.3244 237° Southwest 414 476 32,000 -540 Level Houston Center
09:23AM 30.7317 -93.4356 237° Southwest 414 476 31,000 -1,920 Descending Houston Center
09:24AM 30.6669 -93.5478 236° Southwest 420 483 28,100 -2,640 Descending Houston Center
09:25AM 30.6028 -93.6614 237° Southwest 427 491 25,700 -2,520 Descending Houston Center
09:26AM 30.5236 -93.7989 236° Southwest 431 496 22,900 -2,580 Descending Houston Center
09:27AM 30.4606 -93.9078 236° Southwest 414 476 20,500 -2,340 Descending Houston Center
09:27AM 30.4417 -93.9419 237° Southwest 408 470 19,900 -2,160 Descending Houston Center
09:28AM 30.3981 -94.0167 236° Southwest 410 472 18,300 -2,460 Descending Houston Center
09:29AM 30.3483 -94.1000 235° Southwest 383 441 16,200 -2,340 Descending Houston Center
09:29AM 30.3403 -94.1183 243° Southwest 388 447 15,900 -2,220 Descending Houston Center
09:30AM 30.3008 -94.2106 244° Southwest 366 421 14,000 -2,160 Descending Houston Center
09:30AM 30.2961 -94.2231 246° West 368 423 13,700 -1,440 Descending Houston Center
09:31AM 30.2633 -94.3414 252° West 359 413 12,300 -900 Descending Houston Center
09:32AM 30.2303 -94.4547 251° West 355 409 12,000 -180 Descending Houston Center
09:33AM 30.2056 -94.5450 252° West 359 413 12,000 60 Level Houston Center
09:33AM 30.1978 -94.5739 253° West 356 410 12,100  Climbing Houston Center
09:34AM 30.1742 -94.6556 252° West 362 417 12,000  Descending Houston Center
09:34AM 30.1669 -94.6842 254° West 359 413 12,100 -540 Climbing Houston Center
09:35AM 30.1425 -94.7633 250° West 344 396 11,500 -720 Descending Houston Center
09:35AM 30.1378 -94.7889 258° West 351 404 11,400 -1,020 Descending Houston Center
09:36AM 30.1175 -94.8536 250° West 273 314 10,500 -1,200 Descending Houston Center
09:36AM 30.1142 -94.8731 259° West 292 336 10,200 -1,740 Descending Houston Center
09:37AM 30.1042 -94.9350 259° West 269 310 8,800 -1,800 Descending Houston Center
09:38AM 30.1006 -94.9550 258° West 270 311 8,400 -1,680 Descending Houston Center
09:38AM 30.1039 -95.0197 273° West 265 305 7,100 -1,500 Descending Houston Center
09:39AM 30.1069 -95.0406 280° West 267 307 6,900 -1,140 Descending Houston Center
09:39AM 30.1058 -95.1086 269° West 261 300 6,000 -780 Descending Houston Center
09:40AM 30.1075 -95.1406 273° West 264 304 6,100  Climbing Houston Center
09:40AM 30.1053 -95.1933 267° West 261 300 6,000  Descending Houston Center
09:41AM 30.1064 -95.2239 272° West 262 302 6,100  Climbing Houston Center
09:41AM 30.1069 -95.2778 271° West 258 297 6,000  Descending Houston Center
09:42AM 30.1072 -95.3061 271° West 260 299 6,100  Climbing Houston Center
09:42AM 30.1061 -95.3622 269° West 266 306 6,000  Descending Houston Center
09:43AM 30.1067 -95.3914 271° West 266 306 6,100 -300 Climbing Houston Center
09:43AM 30.1056 -95.4469 269° West 265 305 5,700 -720 Descending Houston Center
09:44AM 30.1075 -95.4750 275° West 262 302 5,400 -1,020 Descending Houston Center
09:44AM 30.1061 -95.5242 268° West 261 300 4,800 -1,020 Descending Houston Center
09:45AM 30.0978 -95.5525 251° West 246 283 4,400 -900 Descending Houston Center
09:45AM 30.0847 -95.5894 248° West 207 238 3,900 -1,020 Descending Houston Center
09:46AM 30.0558 -95.5967 192° South 192 221 3,400 -900 Descending Houston Center
09:46AM 30.0333 -95.6003 188° South 183 211 3,000 -420 Descending Houston Center
09:47AM 30.0097 -95.5806 144° Southeast 190 219 3,000  Level Houston Center
09:47AM 29.9978 -95.5564 120° Southeast 202 232 3,000 -240 Level Houston Center
09:48AM 29.9914 -95.5219 102° East 191 220 2,800 -720 Descending Houston Center
09:48AM 29.9919 -95.4919 89° East 213 245 2,300 -1,020 Descending Houston Center
09:49AM 29.9928 -95.4569 88° East 198 228 1,800 -780 Descending Houston Center